Time;durP1;ratioP1;P1;durP2;ratioP2;P2;SDS_P1;SDS_P2;PMS_P1;PMS_P2;Temp;Humidity;BMP_temperature;BMP_pressure;BME280_temperature;BME280_humidity;BME280_pressure;Samples;Min_cycle;Max_cycle;Signal;HPM_P1;HPM_P2
2023/05/04 00:01:37;;;;;;;13.15;7.63;;;;;;;4.99;100.00;102010.28;10508891;28;20079;-79
2023/05/04 00:06:37;;;;;;;17.65;9.38;;;;;;;5.04;100.00;101997.72;10488851;28;20839;-78
2023/05/04 00:11:38;;;;;;;14.32;9.25;;;;;;;5.03;100.00;101988.13;10524340;28;20072;-79
2023/05/04 00:16:39;;;;;;;13.25;8.13;;;;;;;5.25;100.00;101995.19;10526638;28;20529;-79
2023/05/04 00:21:39;;;;;;;17.48;8.23;;;;;;;5.16;100.00;101984.00;10513378;28;20128;-79
2023/05/04 00:26:40;;;;;;;19.05;8.90;;;;;;;5.13;100.00;101982.03;10509649;28;20300;-79
2023/05/04 00:31:40;;;;;;;12.85;8.65;;;;;;;5.07;100.00;101992.81;10505204;28;20048;-79
2023/05/04 00:36:43;;;;;;;15.13;9.43;;;;;;;5.01;100.00;101971.50;10495033;28;20064;-79
2023/05/04 00:41:44;;;;;;;12.77;8.45;;;;;;;4.91;100.00;101976.66;10502744;28;20074;-79
2023/05/04 00:46:45;;;;;;;18.67;10.20;;;;;;;4.87;100.00;101967.69;10520398;28;20150;-79
2023/05/04 00:51:46;;;;;;;15.27;9.27;;;;;;;4.77;100.00;101965.03;10513286;28;20040;-79
2023/05/04 00:56:46;;;;;;;18.65;10.35;;;;;;;4.92;100.00;101955.13;10512151;28;20043;-79
2023/05/04 01:01:47;;;;;;;12.88;8.05;;;;;;;4.91;100.00;101949.00;10509956;28;20050;-79
2023/05/04 01:06:56;;;;;;;16.48;9.35;;;;;;;4.98;100.00;101941.00;10512539;28;20040;-79
2023/05/04 01:12:07;;;;;;;14.23;8.82;;;;;;;5.12;100.00;101937.03;10499760;28;20371;-79
2023/05/04 01:17:07;;;;;;;16.58;8.55;;;;;;;5.11;100.00;101929.09;10497989;28;20094;-79
2023/05/04 01:22:08;;;;;;;13.88;9.77;;;;;;;5.14;100.00;101931.94;10496362;28;20126;-79
2023/05/04 01:27:13;;;;;;;16.35;8.88;;;;;;;5.26;100.00;101920.03;10508819;28;20036;-79
2023/05/04 01:32:14;;;;;;;13.00;9.15;;;;;;;5.24;100.00;101923.28;10494358;28;20044;-78
2023/05/04 01:37:14;;;;;;;23.70;9.30;;;;;;;5.29;100.00;101917.69;10514777;28;20505;-79
2023/05/04 01:42:15;;;;;;;18.38;9.45;;;;;;;5.24;100.00;101919.00;10505636;28;20554;-79
2023/05/04 01:47:15;;;;;;;16.23;9.93;;;;;;;5.24;100.00;101919.00;10517381;28;20131;-79
2023/05/04 01:52:16;;;;;;;13.85;7.75;;;;;;;5.24;100.00;101919.00;10523933;28;20040;-79
2023/05/04 01:57:16;;;;;;;18.05;11.77;;;;;;;5.00;100.00;101921.28;10518799;28;20060;-79
2023/05/04 02:02:17;;;;;;;14.25;9.63;;;;;;;4.83;100.00;101919.81;10519910;28;20550;-78
2023/05/04 02:07:17;;;;;;;15.18;10.48;;;;;;;4.78;100.00;101917.59;10515811;28;20052;-80
2023/05/04 02:12:18;;;;;;;17.45;11.40;;;;;;;4.61;100.00;101923.88;10523159;28;20177;-81
2023/05/04 02:17:18;;;;;;;18.45;12.48;;;;;;;4.51;100.00;101922.16;10516681;28;20047;-78
2023/05/04 02:22:19;;;;;;;14.85;10.93;;;;;;;4.42;100.00;101914.47;10513202;28;20396;-77
2023/05/04 02:27:19;;;;;;;16.00;11.93;;;;;;;4.24;100.00;101913.72;10518985;28;20115;-79
2023/05/04 02:32:20;;;;;;;19.38;11.07;;;;;;;4.07;100.00;101913.09;10515477;28;20115;-78
2023/05/04 02:37:21;;;;;;;17.10;12.02;;;;;;;4.02;100.00;101905.69;10512837;28;20475;-79
2023/05/04 02:42:21;;;;;;;21.83;12.75;;;;;;;3.91;100.00;101896.94;10529005;28;20040;-78
2023/05/04 02:47:22;;;;;;;19.30;11.57;;;;;;;3.84;100.00;101899.75;10512503;28;20896;-79
2023/05/04 02:52:22;;;;;;;19.83;13.02;;;;;;;3.85;100.00;101891.19;10530050;28;20119;-78
2023/05/04 02:57:23;;;;;;;20.63;12.30;;;;;;;3.76;100.00;101893.88;10530094;28;20143;-78
2023/05/04 03:02:23;;;;;;;21.48;12.00;;;;;;;3.76;100.00;101892.19;10530015;28;20052;-78
2023/05/04 03:07:24;;;;;;;24.52;12.82;;;;;;;3.82;100.00;101887.56;10530987;28;20040;-78
2023/05/04 03:12:25;;;;;;;21.17;12.48;;;;;;;3.87;100.00;101888.00;10511090;28;20040;-79
2023/05/04 03:17:25;;;;;;;20.23;12.52;;;;;;;3.92;100.00;101893.56;10494369;28;20063;-78
2023/05/04 03:22:26;;;;;;;16.23;11.27;;;;;;;3.83;100.00;101893.66;10508078;28;20698;-78
2023/05/04 03:27:26;;;;;;;19.30;13.85;;;;;;;3.66;100.00;101893.03;10528167;28;20044;-78
2023/05/04 03:32:27;;;;;;;22.20;13.35;;;;;;;3.52;100.00;101898.63;10526337;28;20178;-78
2023/05/04 03:37:27;;;;;;;21.85;12.48;;;;;;;3.45;100.00;101894.53;10507984;28;20128;-78
2023/05/04 03:42:28;;;;;;;18.25;13.35;;;;;;;3.50;100.00;101898.47;10508159;28;20040;-78
2023/05/04 03:47:28;;;;;;;20.40;12.68;;;;;;;3.62;100.00;101898.69;10509327;28;20127;-78
2023/05/04 03:52:28;;;;;;;20.77;12.32;;;;;;;3.65;100.00;101891.22;10509367;28;20484;-77
2023/05/04 03:57:29;;;;;;;19.15;11.45;;;;;;;3.62;100.00;101888.34;10492228;28;20054;-78
2023/05/04 04:02:29;;;;;;;20.38;14.35;;;;;;;3.58;100.00;101878.47;10525719;28;20032;-78
2023/05/04 04:07:32;;;;;;;17.33;13.32;;;;;;;3.55;100.00;101879.84;10495771;28;20123;-78
2023/05/04 04:12:32;;;;;;;17.70;12.07;;;;;;;3.57;100.00;101883.50;10522656;28;20040;-78
2023/05/04 04:17:32;;;;;;;20.13;12.73;;;;;;;3.61;100.00;101886.53;10508902;28;20040;-77
2023/05/04 04:22:34;;;;;;;30.13;14.15;;;;;;;3.70;100.00;101878.66;10518080;28;20040;-78
2023/05/04 04:27:35;;;;;;;20.27;12.27;;;;;;;3.89;100.00;101877.75;10518259;28;20044;-78
2023/05/04 04:32:36;;;;;;;18.80;11.75;;;;;;;4.20;100.00;101883.13;10500751;28;20036;-78
2023/05/04 04:37:36;;;;;;;24.75;14.13;;;;;;;4.35;100.00;101881.91;10485915;28;20464;-78
2023/05/04 04:42:37;;;;;;;20.85;11.52;;;;;;;4.73;100.00;101872.19;10508911;28;20039;-78
2023/05/04 04:47:38;;;;;;;21.00;11.20;;;;;;;4.99;100.00;101874.47;10519122;28;20071;-78
2023/05/04 04:52:40;;;;;;;24.15;13.77;;;;;;;5.17;100.00;101856.94;10525099;28;20047;-76
2023/05/04 04:57:40;;;;;;;20.27;12.77;;;;;;;5.61;100.00;101850.19;10507639;28;20043;-75
2023/05/04 05:02:41;;;;;;;16.10;10.15;;;;;;;5.85;100.00;101847.03;10494954;28;20446;-76
2023/05/04 05:07:41;;;;;;;12.77;8.65;;;;;;;6.09;100.00;101849.84;10497779;28;20118;-76
2023/05/04 05:12:42;;;;;;;11.82;8.32;;;;;;;6.41;100.00;101854.16;10505283;28;20044;-76
2023/05/04 05:17:42;;;;;;;14.52;9.48;;;;;;;6.75;100.00;101842.94;10487559;28;20124;-78
2023/05/04 05:22:43;;;;;;;11.40;7.85;;;;;;;7.15;100.00;101845.13;10493642;28;20041;-77
2023/05/04 05:27:43;;;;;;;13.63;7.82;;;;;;;7.55;100.00;101848.16;10519500;28;20429;-75
2023/05/04 05:32:45;;;;;;;14.43;7.55;;;;;;;7.94;100.00;101848.44;10490705;28;20036;-76
2023/05/04 05:37:47;;;;;;;14.07;8.02;;;;;;;8.69;100.00;101852.09;10501361;28;20483;-76
2023/05/04 05:42:47;;;;;;;;;;;;;;;9.94;100.00;101859.72;10510904;28;20067;-76
2023/05/04 05:47:48;;;;;;;12.02;6.43;;;;;;;10.41;100.00;101857.53;10521611;28;20042;-76
2023/05/04 05:52:49;;;;;;;13.27;6.05;;;;;;;10.86;100.00;101855.13;10512757;28;20051;-75
2023/05/04 05:57:50;;;;;;;11.73;4.55;;;;;;;10.84;100.00;101844.53;10521794;28;20039;-76
2023/05/04 06:02:51;;;;;;;7.07;4.32;;;;;;;10.74;100.00;101847.38;10525501;28;20048;-75
2023/05/04 06:07:52;;;;;;;10.75;4.38;;;;;;;10.89;100.00;101836.97;10528350;28;21606;-76
2023/05/04 06:12:52;;;;;;;11.45;4.70;;;;;;;11.06;100.00;101838.00;10531628;28;20062;-74
2023/05/04 06:17:53;;;;;;;9.05;4.05;;;;;;;11.81;100.00;101831.88;10531163;28;20067;-74
2023/05/04 06:22:53;;;;;;;8.98;4.85;;;;;;;12.54;100.00;101828.13;10525886;28;20119;-72
2023/05/04 06:27:54;;;;;;;7.45;3.97;;;;;;;13.34;100.00;101818.34;10508661;28;20044;-74
2023/05/04 06:32:54;;;;;;;9.52;3.83;;;;;;;14.07;100.00;101825.50;10521464;28;20482;-74
2023/05/04 06:37:55;;;;;;;9.63;4.78;;;;;;;14.37;86.84;101811.13;10521397;28;20059;-73
2023/05/04 06:42:55;;;;;;;11.18;4.47;;;;;;;14.72;84.35;101801.34;10523961;28;20111;-72
2023/05/04 06:47:56;;;;;;;11.00;3.88;;;;;;;14.69;92.65;101793.28;10527510;28;20161;-75
2023/05/04 06:53:07;;;;;;;13.75;3.75;;;;;;;15.17;81.57;101794.53;10526259;28;20129;-73
2023/05/04 06:58:07;;;;;;;3.75;2.15;;;;;;;15.35;85.08;101795.31;10507645;28;20036;-73
2023/05/04 07:03:08;;;;;;;8.48;3.05;;;;;;;15.92;70.24;101795.91;10483585;28;20048;-75
2023/05/04 07:08:09;;;;;;;5.28;2.92;;;;;;;15.60;70.96;101785.81;10515570;28;20475;-76
2023/05/04 07:13:09;;;;;;;4.15;2.47;;;;;;;16.04;68.93;101787.59;10522995;28;20032;-75
2023/05/04 07:18:10;;;;;;;5.05;2.88;;;;;;;16.45;68.33;101777.75;10521000;28;20067;-75
2023/05/04 07:23:11;;;;;;;5.30;2.50;;;;;;;16.69;68.48;101769.81;10482779;28;1219955;-74
2023/05/04 07:28:11;;;;;;;6.27;3.13;;;;;;;17.49;63.54;101773.50;10526783;28;20472;-77
2023/05/04 07:33:12;;;;;;;13.80;3.28;;;;;;;18.19;62.46;101759.88;10526121;28;20118;-77
2023/05/04 07:38:13;;;;;;;7.50;3.55;;;;;;;19.12;60.24;101754.56;10526797;28;20523;-80
2023/05/04 07:43:13;;;;;;;6.80;2.57;;;;;;;19.41;60.23;101745.56;10524177;28;20123;-79
2023/05/04 07:48:14;;;;;;;6.23;2.37;;;;;;;19.02;54.74;101750.75;10525272;28;20048;-80
2023/05/04 07:53:14;;;;;;;7.67;3.17;;;;;;;19.94;55.20;101740.66;10520390;28;20487;-79
2023/05/04 07:58:15;;;;;;;7.43;2.63;;;;;;;19.54;52.87;101746.78;10523683;28;20368;-77
2023/05/04 08:03:15;;;;;;;15.47;4.47;;;;;;;19.77;55.37;101734.03;10526137;28;20119;-77
2023/05/04 08:08:16;;;;;;;15.73;4.97;;;;;;;19.91;50.48;101734.41;10525156;28;20047;-78
2023/05/04 08:13:16;;;;;;;5.00;2.57;;;;;;;20.67;50.23;101728.00;10525631;28;20062;-77
2023/05/04 08:18:17;;;;;;;19.93;3.80;;;;;;;21.39;47.03;101739.09;10525655;28;20459;-78
2023/05/04 08:23:17;;;;;;;4.80;2.40;;;;;;;21.18;48.26;101726.31;10508290;28;20114;-77
2023/05/04 08:28:18;;;;;;;7.37;3.30;;;;;;;21.06;44.41;101726.09;10522844;28;20383;-77
2023/05/04 08:33:18;;;;;;;6.00;3.30;;;;;;;21.53;47.72;101727.75;10524148;28;20047;-79
2023/05/04 08:38:19;;;;;;;10.63;3.37;;;;;;;22.04;44.22;101717.91;10524720;28;20123;-77
2023/05/04 08:43:19;;;;;;;7.97;2.87;;;;;;;22.53;44.01;101704.31;10523975;28;20147;-78
2023/05/04 08:48:21;;;;;;;10.50;3.27;;;;;;;22.00;43.45;101700.09;10523681;28;20050;-79
2023/05/04 08:53:21;;;;;;;7.50;3.83;;;;;;;23.54;45.49;101701.69;10497637;28;20113;-78
2023/05/04 08:58:22;;;;;;;6.47;3.23;;;;;;;24.15;41.31;101682.47;10507041;28;20064;-79
2023/05/04 09:03:22;;;;;;;10.83;3.33;;;;;;;24.26;42.28;101677.16;10524235;28;20115;-80
2023/05/04 09:08:23;;;;;;;5.80;2.73;;;;;;;24.38;39.18;101679.00;10480697;28;20059;-79
2023/05/04 09:13:23;;;;;;;7.10;3.70;;;;;;;24.88;40.37;101679.13;10524917;28;20063;-79
2023/05/04 09:18:37;;;;;;;9.57;3.87;;;;;;;25.32;37.86;101672.88;10523402;28;20476;-80
2023/05/04 09:23:48;;;;;;;8.95;3.25;;;;;;;24.65;39.52;101677.28;10507291;28;20066;-78
2023/05/04 09:28:49;;;;;;;8.13;3.90;;;;;;;24.49;40.60;101670.97;10523421;28;20415;-78
2023/05/04 09:33:49;;;;;;;7.47;3.30;;;;;;;24.64;40.39;101673.69;10525422;28;20472;-78
2023/05/04 09:38:50;;;;;;;5.40;3.50;;;;;;;24.55;41.45;101665.63;10524015;28;20067;-79
2023/05/04 09:43:50;;;;;;;8.90;5.23;;;;;;;25.60;38.50;101653.19;10519438;28;20105;-76
2023/05/04 09:48:55;;;;;;;8.03;3.50;;;;;;;25.29;39.20;101646.09;10521101;28;20082;-78
2023/05/04 09:53:57;;;;;;;7.43;4.78;;;;;;;24.42;39.74;101639.75;10521931;28;20048;-76
2023/05/04 09:58:57;;;;;;;7.30;3.28;;;;;;;24.74;40.52;101639.84;10499037;28;20036;-78
2023/05/04 10:03:58;;;;;;;5.67;4.43;;;;;;;24.64;38.42;101635.34;10505112;28;20067;-77
2023/05/04 10:08:59;;;;;;;6.27;3.93;;;;;;;25.17;39.00;101620.19;10503958;28;20076;-78
2023/05/04 10:14:00;;;;;;;6.20;4.13;;;;;;;25.33;40.54;101612.13;10509468;28;20089;-77
2023/05/04 10:19:21;;;;;;;4.83;3.07;;;;;;;25.90;38.53;101613.75;10528567;28;20059;-78
2023/05/04 10:24:53;;;;;;;10.90;4.43;;;;;;;25.83;40.20;101606.66;10530813;28;20544;-78
2023/05/04 10:29:54;;;;;;;6.20;3.78;;;;;;;25.04;37.37;101592.56;10529011;28;20075;-77
2023/05/04 10:35:06;;;;;;;6.70;4.53;;;;;;;24.77;38.66;101599.72;10528780;28;20120;-77
2023/05/04 10:40:07;;;;;;;6.60;3.97;;;;;;;24.44;41.12;101572.00;10526076;28;20107;-78
2023/05/04 10:45:08;;;;;;;17.40;4.22;;;;;;;25.05;39.47;101564.88;10510347;28;20047;-77
2023/05/04 10:50:14;;;;;;;6.72;4.80;;;;;;;25.55;38.40;101556.75;10509139;28;20089;-77
2023/05/04 10:55:16;;;;;;;5.90;3.40;;;;;;;24.95;39.77;101540.78;10515751;28;20047;-78
2023/05/04 11:00:20;;;;;;;;;;;;;;;24.41;40.01;101539.00;10515402;28;20032;-81
2023/05/04 11:05:20;;;;;;;8.50;4.03;;;;;;;23.91;40.84;101528.19;10528938;28;19920;-82
2023/05/04 11:10:21;;;;;;;9.13;4.87;;;;;;;24.22;40.70;101516.69;10507698;28;20119;-81
2023/05/04 11:15:22;;;;;;;13.13;4.63;;;;;;;25.49;41.95;101489.78;10520442;28;20054;-83
2023/05/04 11:20:25;;;;;;;6.67;4.03;;;;;;;25.71;40.45;101492.34;10508459;28;20246;-78
2023/05/04 11:25:26;;;;;;;18.85;5.00;;;;;;;25.12;39.27;101496.13;10506035;28;20036;-80
2023/05/04 11:30:33;;;;;;;11.25;4.72;;;;;;;25.18;39.13;101488.06;10489690;28;20447;-78
2023/05/04 11:35:34;;;;;;;11.13;4.32;;;;;;;25.31;39.15;101475.53;10522646;28;20051;-78
2023/05/04 11:40:35;;;;;;;6.47;3.43;;;;;;;26.49;39.33;101461.41;10509497;28;20115;-79
2023/05/04 11:45:36;;;;;;;8.47;3.97;;;;;;;26.21;37.30;101448.25;10506737;28;20040;-79
2023/05/04 11:50:36;;;;;;;7.07;3.95;;;;;;;26.06;37.44;101459.94;10507112;28;20500;-76
2023/05/04 11:55:37;;;;;;;12.50;3.97;;;;;;;25.92;36.48;101459.13;10525845;28;20130;-77
2023/05/04 12:00:42;;;;;;;7.67;3.97;;;;;;;26.52;36.18;101460.47;10497302;28;20043;-82
2023/05/04 12:05:46;;;;;;;9.00;3.53;;;;;;;26.88;36.88;101458.34;10525058;28;20048;-80
2023/05/04 12:10:47;;;;;;;5.90;3.35;;;;;;;27.01;36.55;101448.38;10525358;28;20032;-80
2023/05/04 12:15:47;;;;;;;15.27;4.93;;;;;;;26.96;33.49;101452.91;10492099;28;20119;-82
2023/05/04 12:20:48;;;;;;;10.87;3.63;;;;;;;26.58;34.71;101428.19;10490572;28;20118;-81
2023/05/04 12:25:48;;;;;;;9.00;3.73;;;;;;;25.79;34.68;101429.72;10490431;28;20032;-79
2023/05/04 12:30:49;;;;;;;13.37;3.50;;;;;;;26.03;36.73;101421.53;10507257;28;20032;-78
2023/05/04 12:35:49;;;;;;;16.50;3.90;;;;;;;25.96;34.96;101426.03;10524261;28;20096;-77
2023/05/04 12:40:50;;;;;;;22.50;3.53;;;;;;;26.22;35.13;101408.88;10506412;28;20045;-78
2023/05/04 12:45:51;;;;;;;7.17;3.70;;;;;;;26.78;33.53;101394.88;10524720;28;20060;-80
2023/05/04 12:50:51;;;;;;;12.13;3.63;;;;;;;27.27;33.15;101399.66;10525817;28;20036;-78
2023/05/04 12:55:52;;;;;;;5.60;2.57;;;;;;;26.56;34.27;101392.44;10525050;28;20437;-78
2023/05/04 13:00:53;;;;;;;5.63;2.93;;;;;;;26.34;35.86;101368.50;10523322;28;20510;-79
2023/05/04 13:05:53;;;;;;;5.93;3.67;;;;;;;26.43;34.23;101369.31;10522996;28;20127;-80
2023/05/04 13:10:54;;;;;;;5.33;3.53;;;;;;;27.18;33.07;101369.38;10521019;28;20139;-78
2023/05/04 13:15:55;;;;;;;13.23;2.90;;;;;;;26.34;33.47;101367.66;10499668;28;20098;-80
2023/05/04 13:20:55;;;;;;;8.90;3.23;;;;;;;26.22;33.59;101349.84;10497861;28;21425;-77
2023/05/04 13:25:56;;;;;;;12.67;2.80;;;;;;;26.22;37.11;101339.13;10506117;28;20833;-77
2023/05/04 13:30:56;;;;;;;6.20;2.70;;;;;;;25.82;35.17;101328.75;10520896;28;20484;-78
2023/05/04 13:35:57;;;;;;;6.97;3.70;;;;;;;24.57;35.09;101331.22;10523224;28;20169;-81
2023/05/04 13:40:58;;;;;;;9.80;3.23;;;;;;;25.73;37.26;101324.38;10505654;28;20047;-81
2023/05/04 13:46:02;;;;;;;5.83;3.10;;;;;;;25.85;35.05;101309.94;10522165;28;20380;-80
2023/05/04 13:51:02;;;;;;;9.00;3.35;;;;;;;26.60;34.08;101305.63;10513491;28;20073;-79
2023/05/04 13:56:03;;;;;;;7.07;2.90;;;;;;;25.67;34.95;101284.22;10529869;28;20552;-75
2023/05/04 14:01:04;;;;;;;4.50;2.50;;;;;;;26.90;36.01;101276.63;10528539;28;20045;-76
2023/05/04 14:06:05;;;;;;;9.00;3.25;;;;;;;27.10;32.57;101278.13;10490781;28;20036;-79
2023/05/04 14:11:05;;;;;;;5.50;2.53;;;;;;;27.52;31.93;101259.59;10522769;28;20042;-77
2023/05/04 14:16:06;;;;;;;8.03;2.80;;;;;;;26.33;31.64;101237.97;10531944;28;20039;-78
2023/05/04 14:21:06;;;;;;;4.50;3.27;;;;;;;26.01;33.42;101231.13;10526492;28;20229;-79
2023/05/04 14:26:07;;;;;;;6.07;2.97;;;;;;;25.25;34.04;101226.47;10517216;28;20044;-75
2023/05/04 14:31:09;;;;;;;6.07;3.73;;;;;;;24.67;33.75;101217.00;10514593;28;20097;-77
2023/05/04 14:36:09;;;;;;;;;;;;;;;24.78;37.37;101224.09;10528557;28;20051;-77
2023/05/04 14:41:09;;;;;;;8.05;3.70;;;;;;;25.09;34.87;101214.97;10529629;28;19920;-77
2023/05/04 14:46:11;;;;;;;7.20;2.67;;;;;;;25.52;35.08;101208.41;10510300;28;20475;-78
2023/05/04 14:51:12;;;;;;;;;;;;;;;25.20;33.34;101222.94;10504404;28;20034;-78
2023/05/04 14:56:13;;;;;;;23.05;3.15;;;;;;;25.36;34.12;101223.69;10529269;28;20322;-80
2023/05/04 15:01:13;;;;;;;6.63;2.60;;;;;;;25.13;35.75;101219.41;10526552;28;21683;-75
2023/05/04 15:06:14;;;;;;;11.17;3.13;;;;;;;24.90;36.48;101230.28;10508711;28;20449;-78
2023/05/04 15:11:14;;;;;;;12.00;3.10;;;;;;;24.41;34.86;101221.59;10488164;28;20059;-77
2023/05/04 15:16:16;;;;;;;6.70;3.63;;;;;;;24.16;35.83;101221.69;10495429;28;20036;-78
2023/05/04 15:21:17;;;;;;;6.35;2.53;;;;;;;24.58;36.60;101202.75;10509150;28;20048;-77
2023/05/04 15:26:17;;;;;;;9.33;3.17;;;;;;;24.69;36.57;101199.13;10528353;28;20460;-82
2023/05/04 15:31:18;;;;;;;7.13;3.07;;;;;;;23.75;35.33;101178.09;10526534;28;20132;-78
2023/05/04 15:36:18;;;;;;;5.27;3.03;;;;;;;23.49;36.65;101179.91;10529540;28;20176;-79
2023/05/04 15:41:19;;;;;;;3.87;2.30;;;;;;;23.41;38.08;101180.81;10523726;28;20032;-79
2023/05/04 15:46:20;;;;;;;10.47;3.20;;;;;;;23.26;36.17;101172.78;10527086;28;20143;-77
2023/05/04 15:51:20;;;;;;;7.33;3.10;;;;;;;23.13;35.76;101170.09;10497006;28;20305;-77
2023/05/04 15:56:21;;;;;;;4.90;2.40;;;;;;;22.94;36.82;101168.28;10525292;28;20040;-79
2023/05/04 16:01:21;;;;;;;3.13;2.17;;;;;;;22.52;36.68;101166.44;10506533;28;20079;-80
2023/05/04 16:06:22;;;;;;;5.70;2.53;;;;;;;22.19;38.17;101168.06;10525406;28;20036;-78
2023/05/04 16:11:22;;;;;;;9.73;2.37;;;;;;;22.14;40.39;101164.50;10515264;28;20060;-80
2023/05/04 16:16:23;;;;;;;6.90;3.33;;;;;;;22.23;39.11;101159.19;10526166;28;20070;-80
2023/05/04 16:21:24;;;;;;;7.30;2.77;;;;;;;22.28;39.63;101149.44;10509201;28;20052;-78
2023/05/04 16:26:24;;;;;;;7.27;3.03;;;;;;;22.25;38.60;101151.22;10523913;28;20051;-78
2023/05/04 16:31:25;;;;;;;7.53;3.00;;;;;;;22.25;38.67;101145.91;10484799;28;20055;-78
2023/05/04 16:36:26;;;;;;;5.00;2.57;;;;;;;22.30;39.62;101146.81;10501802;28;20043;-78
2023/05/04 16:41:29;;;;;;;14.70;5.97;;;;;;;22.41;37.85;101144.16;10502212;28;20047;-77
2023/05/04 16:46:30;;;;;;;4.60;2.47;;;;;;;22.43;37.02;101137.94;10518905;28;20093;-78
2023/05/04 16:51:30;;;;;;;3.30;2.60;;;;;;;22.44;37.66;101146.81;10519501;28;20051;-78
2023/05/04 16:56:31;;;;;;;4.63;2.53;;;;;;;22.39;37.94;101138.84;10524222;28;20495;-75
2023/05/04 17:01:31;;;;;;;7.30;3.33;;;;;;;22.35;36.80;101146.78;10521661;28;20472;-78
2023/05/04 17:06:32;;;;;;;4.87;2.00;;;;;;;22.33;37.92;101140.56;10523831;28;20155;-77
2023/05/04 17:11:33;;;;;;;7.97;3.73;;;;;;;22.18;36.19;101134.31;10524725;28;20054;-78
2023/05/04 17:16:33;;;;;;;13.05;7.28;;;;;;;21.99;36.64;101131.56;10523450;28;20048;-78
2023/05/04 17:21:34;;;;;;;6.17;2.37;;;;;;;21.84;36.58;101140.38;10523479;28;20454;-77
2023/05/04 17:26:34;;;;;;;7.70;4.60;;;;;;;21.59;37.93;101139.31;10532764;28;20075;-78
2023/05/04 17:31:35;;;;;;;3.80;2.50;;;;;;;21.29;38.44;101140.00;10531270;28;20067;-78
2023/05/04 17:36:35;;;;;;;7.90;2.40;;;;;;;21.09;39.04;101127.41;10513812;28;20047;-78
2023/05/04 17:41:36;;;;;;;7.57;2.93;;;;;;;20.79;39.86;101129.81;10532971;28;20078;-77
2023/05/04 17:46:36;;;;;;;5.80;2.93;;;;;;;20.58;40.80;101132.22;10515029;28;20121;-77
2023/05/04 17:51:38;;;;;;;5.90;2.33;;;;;;;20.43;40.81;101130.31;10528975;28;20130;-77
2023/05/04 17:56:38;;;;;;;6.43;2.47;;;;;;;20.27;40.31;101126.56;10532744;28;20063;-78
2023/05/04 18:01:39;;;;;;;3.63;2.30;;;;;;;19.95;43.80;101133.28;10499296;28;20167;-78
2023/05/04 18:06:39;;;;;;;13.40;4.93;;;;;;;19.74;42.40;101134.72;10526611;28;20122;-77
2023/05/04 18:11:40;;;;;;;6.20;2.42;;;;;;;19.33;45.16;101135.00;10525115;28;20067;-78
2023/05/04 18:16:40;;;;;;;6.33;2.13;;;;;;;19.08;46.13;101137.25;10532545;28;20056;-78
2023/05/04 18:21:41;;;;;;;6.05;1.88;;;;;;;18.67;48.26;101135.59;10530574;28;20135;-78
2023/05/04 18:26:43;;;;;;;6.40;2.30;;;;;;;18.10;51.16;101140.69;10495884;28;20059;-78
2023/05/04 18:31:43;;;;;;;6.78;2.20;;;;;;;17.58;53.52;101154.53;10528715;28;20044;-78
2023/05/04 18:36:44;;;;;;;3.80;2.70;;;;;;;17.16;56.10;101155.25;10528711;28;20113;-78
2023/05/04 18:41:45;;;;;;;3.88;2.28;;;;;;;16.78;58.99;101156.03;10531505;28;20463;-78
2023/05/04 18:46:45;;;;;;;3.95;2.50;;;;;;;16.53;67.13;101155.38;10526339;28;20128;-78
2023/05/04 18:51:46;;;;;;;4.10;2.47;;;;;;;16.25;73.44;101162.50;10526814;28;20051;-78
2023/05/04 18:56:46;;;;;;;5.68;3.58;;;;;;;16.00;75.35;101161.78;10526589;28;20054;-78
2023/05/04 19:01:53;;;;;;;8.10;2.85;;;;;;;15.79;81.12;101169.91;10519781;28;20139;-77
2023/05/04 19:06:53;;;;;;;7.78;4.07;;;;;;;15.61;86.35;101167.59;10507910;28;20036;-78
2023/05/04 19:11:54;;;;;;;14.90;3.78;;;;;;;15.49;87.51;101165.44;10509333;28;20036;-76
2023/05/04 19:16:54;;;;;;;8.45;4.57;;;;;;;15.37;93.01;101176.50;10523976;28;20047;-78
2023/05/04 19:21:55;;;;;;;5.95;3.33;;;;;;;15.27;99.09;101169.13;10522053;28;20040;-78
2023/05/04 19:26:58;;;;;;;9.77;5.65;;;;;;;15.33;100.00;101173.69;10518069;28;20048;-78
2023/05/04 19:31:58;;;;;;;9.82;3.55;;;;;;;15.34;100.00;101170.22;10507707;28;20036;-77
2023/05/04 19:36:59;;;;;;;4.28;2.58;;;;;;;15.40;95.41;101183.59;10505971;28;20140;-78
2023/05/04 19:41:59;;;;;;;13.15;3.03;;;;;;;15.51;94.80;101176.94;10505391;28;20111;-77
2023/05/04 19:47:00;;;;;;;6.65;3.20;;;;;;;15.50;100.00;101176.91;10521351;28;20071;-77
2023/05/04 19:52:00;;;;;;;8.95;4.32;;;;;;;15.53;100.00;101179.63;10527672;28;20064;-78
2023/05/04 19:57:01;;;;;;;10.23;3.45;;;;;;;15.56;100.00;101180.63;10498126;28;20060;-78
2023/05/04 20:02:01;;;;;;;7.55;3.75;;;;;;;15.29;100.00;101185.91;10520710;28;20159;-77
2023/05/04 20:07:02;;;;;;;8.90;3.60;;;;;;;15.29;100.00;101178.00;10509689;28;20496;-77
2023/05/04 20:12:03;;;;;;;7.13;3.05;;;;;;;15.26;100.00;101170.84;10526938;28;20119;-77
2023/05/04 20:17:03;;;;;;;16.00;3.70;;;;;;;15.32;100.00;101178.09;10525009;28;20048;-77
2023/05/04 20:22:04;;;;;;;7.32;3.13;;;;;;;15.17;100.00;101177.59;10525670;28;20040;-77
2023/05/04 20:27:04;;;;;;;7.93;3.75;;;;;;;15.20;100.00;101177.69;10527187;28;20064;-78
2023/05/04 20:32:06;;;;;;;10.00;3.80;;;;;;;15.36;100.00;101172.06;10521283;28;20067;-77
2023/05/04 20:37:06;;;;;;;8.17;4.07;;;;;;;15.47;100.00;101174.16;10509971;28;20523;-77
2023/05/04 20:42:07;;;;;;;5.93;3.10;;;;;;;15.34;100.00;101170.22;10526829;28;20063;-77
2023/05/04 20:47:07;;;;;;;8.55;3.17;;;;;;;14.97;100.00;101168.13;10524464;28;20063;-77
2023/05/04 20:52:07;;;;;;;7.35;3.95;;;;;;;14.87;100.00;101166.03;10520467;28;20058;-77
2023/05/04 20:57:08;;;;;;;5.07;3.58;;;;;;;14.74;100.00;101167.34;10527263;28;20487;-77
2023/05/04 21:02:08;;;;;;;7.18;4.45;;;;;;;14.60;100.00;101171.19;10526153;28;20074;-77
2023/05/04 21:07:09;;;;;;;6.07;4.15;;;;;;;14.66;100.00;101160.88;10507492;28;20068;-77
2023/05/04 21:12:09;;;;;;;14.07;5.22;;;;;;;14.66;100.00;101164.38;10484612;28;20125;-77
2023/05/04 21:17:10;;;;;;;8.07;4.35;;;;;;;14.66;100.00;101164.38;10506629;28;20075;-77
2023/05/04 21:22:11;;;;;;;10.48;3.85;;;;;;;14.68;100.00;101152.16;10523387;28;20056;-77
2023/05/04 21:27:11;;;;;;;8.82;4.32;;;;;;;14.69;100.00;101161.00;10523843;28;20161;-77
2023/05/04 21:32:12;;;;;;;8.20;3.88;;;;;;;14.58;100.00;101157.94;10506865;28;20093;-77
2023/05/04 21:37:12;;;;;;;8.10;4.30;;;;;;;14.47;100.00;101157.59;10523709;28;20036;-77
2023/05/04 21:42:13;;;;;;;6.85;3.50;;;;;;;14.39;100.00;101157.28;10524375;28;20115;-77
2023/05/04 21:47:13;;;;;;;11.52;5.15;;;;;;;14.35;100.00;101157.13;10525071;28;20555;-77
2023/05/04 21:52:14;;;;;;;9.20;4.00;;;;;;;14.33;100.00;101158.81;10525473;28;20082;-77
2023/05/04 21:57:14;;;;;;;9.02;4.00;;;;;;;14.36;100.00;101166.81;10521925;28;20127;-76
2023/05/04 22:02:15;;;;;;;8.35;4.03;;;;;;;14.37;100.00;101166.00;10507014;28;20043;-79
2023/05/04 22:07:15;;;;;;;7.10;4.57;;;;;;;14.37;100.00;101158.09;10524852;28;20130;-77
2023/05/04 22:12:16;;;;;;;9.07;4.38;;;;;;;14.47;100.00;101154.03;10530985;28;20082;-77
2023/05/04 22:17:16;;;;;;;6.93;4.05;;;;;;;14.53;100.00;101156.91;10499445;28;20151;-77
2023/05/04 22:22:17;;;;;;;10.43;5.22;;;;;;;14.61;100.00;101151.91;10530662;28;20130;-77
2023/05/04 22:27:17;;;;;;;5.30;3.47;;;;;;;14.76;100.00;101148.94;10529965;28;20137;-77
2023/05/04 22:32:18;;;;;;;6.03;4.30;;;;;;;14.79;100.00;101160.50;10530722;28;20028;-77
2023/05/04 22:37:18;;;;;;;9.27;4.35;;;;;;;14.72;100.00;101166.41;10528188;28;20138;-77
2023/05/04 22:42:19;;;;;;;8.63;4.55;;;;;;;14.68;100.00;101162.72;10531177;28;20412;-77
2023/05/04 22:47:19;;;;;;;5.45;3.47;;;;;;;14.65;100.00;101162.59;10527577;28;20043;-77
2023/05/04 22:52:20;;;;;;;9.63;5.32;;;;;;;14.60;100.00;101172.06;10529435;28;20115;-77